Main page
METAR-TAF:

METAR-TAF

Airports :

N'Djamena, Chad

N'Djamena International Airport

latitude: 12-08N, longitude: 015-02E, elevation: 295 m

Current weather observation

The report was made 32 minutes ago, at 20:00 UTC
Calm wind
Temperature 25°C
Humidity 83%
Pressure 1010 hPa
Visibility 10 km or more
no clouds below 1500 m and no cumulonimbus

METAR: FTTJ 232000Z 00000KT CAVOK 25/22 Q1010 NOSIG

Time: 21:32 (20:32 UTC)

Forecast

The report was made 3 hours and 32 minutes ago, at 17:00 UTC
Forecast valid from 23 at 18 UTC to 24 at 24 UTC
Wind 7 kt from the South
Visibility 10 km or more
no clouds below 1500 m and no cumulonimbus
Probability 40% :
Temporary
from 24 at 08 UTC to 24 at 18 UTC
Wind 15 kt from variable directions with gusts up to 30 kt
Visibility: 3000 m
thunderstorm, rain

TAF: FTTJ 231700Z 2318/2424 18007KT CAVOK PROB40 TEMPO 2408/2418 VRB15G30KT 3000 TSRA

Weather observations and forecasts of more than 4000 airports (METAR and TAF reports).

The available stations are represented by yellow and red dots on the map.

Hover mouse over dot to see the name of the station.

Then click to see weather observations and forecasts.

To change the map : click on the green buttons with a black cross to zoom in, on the green button with a dash to zoom out, or on the green arrows for adjacent maps.


METAR-TAF: